Time;durP1;ratioP1;P1;durP2;ratioP2;P2;SDS_P1;SDS_P2;PMS_P1;PMS_P2;Temp;Humidity;BMP_temperature;BMP_pressure;BME280_temperature;BME280_humidity;BME280_pressure;Samples;Min_cycle;Max_cycle;Signal;HPM_P1;HPM_P2
2021/11/09 00:00:43;;;;;;;7.47;4.38;;;;;;;;;;5013645;28;20203;-63
2021/11/09 00:03:10;;;;;;;8.55;4.63;;;;;;;;;;5013698;28;20205;-63
2021/11/09 00:05:46;;;;;;;9.60;4.80;;;;;;;;;;5013288;28;20209;-63
2021/11/09 00:08:17;;;;;;;8.30;5.00;;;;;;;;;;5013210;28;20639;-63
2021/11/09 00:10:45;;;;;;;7.25;4.00;;;;;;;;;;5013501;28;20194;-63
2021/11/09 00:13:14;;;;;;;7.13;4.25;;;;;;;;;;5013523;28;20227;-62
2021/11/09 00:15:41;;;;;;;11.48;4.25;;;;;;;;;;5013521;28;20211;-63
2021/11/09 00:18:09;;;;;;;8.55;4.55;;;;;;;;;;5013127;28;20210;-63
2021/11/09 00:20:37;;;;;;;9.63;4.72;;;;;;;;;;5013474;28;20203;-63
2021/11/09 00:23:05;;;;;;;8.93;4.63;;;;;;;;;;5013313;28;20195;-63
2021/11/09 00:25:33;;;;;;;4.97;4.43;;;;;;;;;;5016829;28;20702;-63
2021/11/09 00:28:00;;;;;;;7.00;3.80;;;;;;;;;;5017048;28;20210;-64
2021/11/09 00:30:29;;;;;;;8.77;4.40;;;;;;;;;;5017393;28;20574;-62
2021/11/09 00:32:57;;;;;;;10.82;4.15;;;;;;;;;;5017235;28;20284;-63
2021/11/09 00:35:25;;;;;;;8.25;5.28;;;;;;;;;;5017960;28;20210;-63
2021/11/09 00:37:53;;;;;;;9.45;5.13;;;;;;;;;;5016922;28;20207;-63
2021/11/09 00:40:22;;;;;;;10.95;5.45;;;;;;;;;;5016890;28;20210;-63
2021/11/09 00:42:49;;;;;;;11.18;5.22;;;;;;;;;;5017109;28;20199;-62
2021/11/09 00:45:17;;;;;;;6.88;4.35;;;;;;;;;;5017128;28;20202;-62
2021/11/09 00:47:46;;;;;;;13.00;6.38;;;;;;;;;;5016688;28;20675;-62
2021/11/09 00:50:15;;;;;;;6.65;4.65;;;;;;;;;;5016599;28;20230;-63
2021/11/09 00:52:43;;;;;;;15.00;5.93;;;;;;;;;;5016560;28;20211;-62
2021/11/09 00:55:12;;;;;;;9.10;5.43;;;;;;;;;;5016985;28;20230;-63
2021/11/09 00:57:40;;;;;;;11.23;5.07;;;;;;;;;;5016903;28;20663;-62
2021/11/09 01:00:09;;;;;;;6.75;4.97;;;;;;;;;;5016610;28;20223;-62
2021/11/09 01:02:36;;;;;;;9.07;5.40;;;;;;;;;;5016474;28;20203;-63
2021/11/09 01:05:06;;;;;;;10.45;6.05;;;;;;;;;;5016482;28;20694;-63
2021/11/09 01:07:33;;;;;;;11.15;5.88;;;;;;;;;;5016375;28;20203;-63
2021/11/09 01:10:00;;;;;;;9.98;5.82;;;;;;;;;;5016277;28;20230;-63
2021/11/09 01:12:28;;;;;;;10.20;4.88;;;;;;;;;;5016740;28;20199;-62
2021/11/09 01:14:57;;;;;;;7.35;5.45;;;;;;;;;;5017175;28;20621;-63
2021/11/09 01:17:24;;;;;;;9.48;5.70;;;;;;;;;;5016529;28;20253;-63
2021/11/09 01:19:52;;;;;;;12.77;6.72;;;;;;;;;;5016151;28;20734;-63
2021/11/09 01:22:21;;;;;;;11.43;6.15;;;;;;;;;;5016538;28;20213;-63
2021/11/09 01:24:48;;;;;;;6.90;5.35;;;;;;;;;;5016491;28;20199;-63
2021/11/09 01:27:15;;;;;;;13.15;6.63;;;;;;;;;;5016470;28;20210;-63
2021/11/09 01:29:43;;;;;;;9.25;6.60;;;;;;;;;;5016412;28;20258;-62
2021/11/09 01:32:10;;;;;;;11.57;7.47;;;;;;;;;;5016147;28;20207;-63
2021/11/09 01:34:37;;;;;;;10.40;6.55;;;;;;;;;;5016360;28;20594;-63
2021/11/09 01:37:05;;;;;;;12.77;6.60;;;;;;;;;;5015570;28;20203;-63
2021/11/09 01:39:34;;;;;;;7.30;6.50;;;;;;;;;;5015847;28;20238;-63
2021/11/09 01:42:01;;;;;;;11.85;6.80;;;;;;;;;;5016355;28;20210;-63
2021/11/09 01:44:28;;;;;;;8.65;6.93;;;;;;;;;;5016001;28;20205;-63
2021/11/09 01:46:56;;;;;;;10.40;6.47;;;;;;;;;;5016028;28;20210;-62
2021/11/09 01:49:23;;;;;;;10.82;7.00;;;;;;;;;;5015617;28;20239;-63
2021/11/09 01:51:50;;;;;;;12.20;6.85;;;;;;;;;;5016494;28;20313;-62
2021/11/09 01:54:18;;;;;;;11.48;6.25;;;;;;;;;;5016020;28;20254;-62
2021/11/09 01:56:47;;;;;;;9.25;7.25;;;;;;;;;;5015775;28;20210;-63
2021/11/09 01:59:14;;;;;;;11.75;6.53;;;;;;;;;;5015448;28;20703;-63
2021/11/09 02:01:42;;;;;;;9.45;6.25;;;;;;;;;;5015744;28;20372;-63
2021/11/09 02:04:11;;;;;;;11.48;7.22;;;;;;;;;;5015631;28;20574;-63
2021/11/09 02:06:38;;;;;;;10.77;6.40;;;;;;;;;;5015323;28;20214;-63
2021/11/09 02:09:07;;;;;;;11.93;6.53;;;;;;;;;;5015190;28;20715;-63
2021/11/09 02:11:34;;;;;;;14.43;7.55;;;;;;;;;;5015507;28;20560;-63
2021/11/09 02:14:03;;;;;;;12.82;7.25;;;;;;;;;;5015470;28;20630;-63
2021/11/09 02:16:31;;;;;;;9.98;6.93;;;;;;;;;;5015128;28;20209;-63
2021/11/09 02:18:59;;;;;;;12.20;6.97;;;;;;;;;;5015862;28;20227;-62
2021/11/09 02:21:29;;;;;;;11.07;7.10;;;;;;;;;;5016509;28;20199;-62
2021/11/09 02:23:56;;;;;;;11.88;7.25;;;;;;;;;;5015844;28;20203;-63
2021/11/09 02:26:26;;;;;;;12.00;8.25;;;;;;;;;;5016485;28;20598;-63
2021/11/09 02:28:54;;;;;;;12.82;8.90;;;;;;;;;;5016220;28;20229;-63
2021/11/09 02:31:21;;;;;;;13.43;9.32;;;;;;;;;;5015735;28;20214;-63
2021/11/09 02:33:49;;;;;;;13.55;8.05;;;;;;;;;;5015175;28;20219;-63
2021/11/09 02:36:17;;;;;;;14.60;9.77;;;;;;;;;;5014912;28;20574;-63
2021/11/09 02:38:46;;;;;;;16.33;10.10;;;;;;;;;;5014767;28;20226;-62
2021/11/09 02:41:13;;;;;;;16.25;9.05;;;;;;;;;;5014680;28;20199;-63
2021/11/09 02:43:40;;;;;;;17.20;8.75;;;;;;;;;;5014851;28;20199;-62
2021/11/09 02:48:54;;;;;;;11.32;7.68;;;;;;;;;;5010590;28;20233;-63
2021/11/09 02:51:24;;;;;;;10.43;6.90;;;;;;;;;;5014579;28;20193;-62
2021/11/09 02:53:57;;;;;;;9.95;6.38;;;;;;;;;;5015243;28;20202;-63
2021/11/09 02:56:27;;;;;;;11.02;5.82;;;;;;;;;;5014754;28;20548;-63
2021/11/09 02:58:59;;;;;;;10.18;6.13;;;;;;;;;;5014600;28;20239;-63
2021/11/09 03:01:32;;;;;;;13.57;6.15;;;;;;;;;;5018615;28;20278;-63
2021/11/09 03:04:04;;;;;;;8.60;5.78;;;;;;;;;;5017487;28;20215;-63
2021/11/09 03:06:35;;;;;;;11.07;6.10;;;;;;;;;;5017718;28;20561;-63
2021/11/09 03:09:08;;;;;;;10.68;5.88;;;;;;;;;;5016594;28;20254;-63
2021/11/09 03:11:37;;;;;;;9.80;5.20;;;;;;;;;;5016483;28;20187;-61
2021/11/09 03:14:04;;;;;;;9.75;5.28;;;;;;;;;;5016332;28;20242;-63
2021/11/09 03:16:35;;;;;;;10.40;5.63;;;;;;;;;;5014995;28;20233;-63
2021/11/09 03:19:10;;;;;;;9.35;4.80;;;;;;;;;;5014781;28;20317;-63
2021/11/09 03:46:52;;;;;;;7.53;4.35;;;;;;;;;;4953313;29;20237;-63
2021/11/09 03:49:21;;;;;;;8.13;5.13;;;;;;;;;;4999836;28;20230;-63
2021/11/09 03:51:48;;;;;;;6.72;5.60;;;;;;;;;;5013979;28;20682;-61
2021/11/09 03:54:17;;;;;;;10.15;5.53;;;;;;;;;;5014320;28;20226;-61
2021/11/09 03:56:49;;;;;;;9.93;5.65;;;;;;;;;;5014551;28;20269;-61
2021/11/09 03:59:21;;;;;;;6.80;5.00;;;;;;;;;;5013830;28;20219;-62
2021/11/09 04:02:02;;;;;;;10.75;5.75;;;;;;;;;;5015041;28;20187;-62
2021/11/09 04:04:38;;;;;;;7.72;5.88;;;;;;;;;;5014870;28;20270;-63
2021/11/09 04:08:57;;;;;;;7.82;5.72;;;;;;;;;;5091625;27;20550;-63
2021/11/09 04:11:28;;;;;;;10.05;6.47;;;;;;;;;;5091068;28;20191;-63
2021/11/09 04:14:01;;;;;;;10.23;7.75;;;;;;;;;;5090764;28;20711;-63
2021/11/09 04:16:40;;;;;;;10.27;6.82;;;;;;;;;;5091107;28;20188;-63
2021/11/09 04:19:24;;;;;;;14.75;6.85;;;;;;;;;;5090785;28;20595;-63
2021/11/09 04:22:14;;;;;;;12.70;7.32;;;;;;;;;;5092859;22;20232;-57
2021/11/09 04:52:42;;;;;;;12.57;7.78;;;;;;;;;;5036791;28;20225;-58
2021/11/09 05:09:00;;;;;;;15.10;9.05;;;;;;;;;;5049771;28;20189;-57
2021/11/09 05:11:28;;;;;;;21.20;9.27;;;;;;;;;;5050010;28;20279;-57
2021/11/09 05:13:57;;;;;;;15.80;8.50;;;;;;;;;;5049686;28;20207;-58
2021/11/09 05:16:24;;;;;;;14.43;8.70;;;;;;;;;;5049284;28;20556;-58
2021/11/09 05:18:51;;;;;;;11.65;8.80;;;;;;;;;;5043492;28;20200;-58
2021/11/09 05:21:18;;;;;;;17.52;9.38;;;;;;;;;;5035634;28;20231;-57
2021/11/09 05:23:46;;;;;;;16.85;11.07;;;;;;;;;;5036028;28;20202;-58
2021/11/09 05:26:14;;;;;;;17.50;10.40;;;;;;;;;;5036074;28;20207;-58
2021/11/09 05:28:41;;;;;;;15.98;10.00;;;;;;;;;;5035444;28;20220;-58
2021/11/09 05:31:10;;;;;;;23.02;9.93;;;;;;;;;;5035565;28;20746;-59
2021/11/09 05:33:37;;;;;;;16.13;10.02;;;;;;;;;;5035658;28;20199;-58
2021/11/09 05:36:06;;;;;;;24.83;10.90;;;;;;;;;;5035643;28;20199;-59
2021/11/09 05:38:43;;;;;;;16.60;9.02;;;;;;;;;;5035398;28;20200;-58
2021/11/09 05:41:11;;;;;;;17.42;9.55;;;;;;;;;;5035660;28;20284;-58
2021/11/09 05:43:38;;;;;;;14.68;9.00;;;;;;;;;;5035349;28;20203;-58
2021/11/09 05:46:08;;;;;;;17.95;10.02;;;;;;;;;;5035234;28;20207;-58
2021/11/09 05:48:37;;;;;;;18.98;10.35;;;;;;;;;;5035509;28;20227;-58
2021/11/09 05:51:04;;;;;;;18.88;10.35;;;;;;;;;;5035159;28;20219;-57
2021/11/09 05:53:33;;;;;;;18.33;11.05;;;;;;;;;;5035114;28;20203;-58
2021/11/09 05:56:01;;;;;;;20.30;11.30;;;;;;;;;;5035383;28;20253;-58
2021/11/09 05:58:28;;;;;;;24.02;12.30;;;;;;;;;;5035465;28;20225;-58
2021/11/09 06:00:55;;;;;;;17.15;10.73;;;;;;;;;;5034949;28;20287;-59
2021/11/09 06:03:23;;;;;;;20.40;12.73;;;;;;;;;;5035276;28;20217;-58
2021/11/09 06:05:53;;;;;;;19.17;12.45;;;;;;;;;;5035196;28;20293;-58
2021/11/09 06:08:20;;;;;;;19.85;12.35;;;;;;;;;;5034849;28;20215;-58
2021/11/09 06:10:47;;;;;;;23.92;12.13;;;;;;;;;;5035168;28;20662;-58
2021/11/09 06:13:15;;;;;;;24.70;13.18;;;;;;;;;;5035088;28;20200;-58
2021/11/09 06:15:43;;;;;;;19.13;12.77;;;;;;;;;;5034842;28;20199;-58
2021/11/09 06:18:10;;;;;;;19.88;12.02;;;;;;;;;;5034617;28;20207;-58
2021/11/09 06:20:37;;;;;;;19.73;13.07;;;;;;;;;;5034566;28;20204;-59
2021/11/09 06:23:06;;;;;;;25.23;13.18;;;;;;;;;;5034605;28;20693;-58
2021/11/09 06:25:34;;;;;;;20.63;14.50;;;;;;;;;;5034435;28;20211;-58
2021/11/09 06:28:04;;;;;;;22.88;12.05;;;;;;;;;;5034404;28;20218;-59
2021/11/09 06:30:32;;;;;;;25.35;12.65;;;;;;;;;;5033422;28;20273;-58
2021/11/09 06:32:59;;;;;;;19.23;12.82;;;;;;;;;;5034531;28;20227;-59
2021/11/09 06:35:27;;;;;;;21.80;12.52;;;;;;;;;;5034730;28;20236;-59
2021/11/09 06:37:54;;;;;;;28.05;14.10;;;;;;;;;;5034267;28;20202;-60
2021/11/09 06:40:23;;;;;;;21.90;14.48;;;;;;;;;;5033958;28;20202;-58
2021/11/09 06:42:51;;;;;;;25.90;14.82;;;;;;;;;;5033943;28;20226;-59
2021/11/09 06:45:18;;;;;;;22.92;14.15;;;;;;;;;;5033927;28;20203;-59
2021/11/09 06:47:48;;;;;;;26.77;14.48;;;;;;;;;;5034337;28;20226;-59
2021/11/09 06:50:15;;;;;;;24.73;13.98;;;;;;;;;;5033953;28;20620;-58
2021/11/09 06:52:43;;;;;;;25.80;14.57;;;;;;;;;;5033939;28;20233;-60
2021/11/09 06:55:11;;;;;;;22.83;13.77;;;;;;;;;;5033800;28;20202;-59
2021/11/09 06:57:39;;;;;;;26.10;14.73;;;;;;;;;;5033922;28;20278;-59
2021/11/09 07:00:08;;;;;;;23.30;14.20;;;;;;;;;;5033889;28;20203;-58
2021/11/09 07:02:37;;;;;;;25.10;14.20;;;;;;;;;;5033862;28;20318;-59
2021/11/09 07:05:05;;;;;;;26.95;15.07;;;;;;;;;;5033926;28;20289;-59
2021/11/09 07:07:32;;;;;;;29.33;15.70;;;;;;;;;;5033827;28;20223;-59
2021/11/09 07:09:59;;;;;;;30.83;15.45;;;;;;;;;;5033832;28;20210;-59
2021/11/09 07:12:27;;;;;;;23.05;15.35;;;;;;;;;;5033608;28;20230;-59
2021/11/09 07:14:56;;;;;;;27.27;15.75;;;;;;;;;;5033877;28;20210;-58
2021/11/09 07:17:23;;;;;;;25.25;16.15;;;;;;;;;;5033744;28;20214;-58
2021/11/09 07:19:52;;;;;;;20.13;15.48;;;;;;;;;;5033639;28;20198;-60
2021/11/09 07:22:19;;;;;;;23.50;14.80;;;;;;;;;;5033209;28;20758;-58
2021/11/09 07:24:47;;;;;;;26.08;15.10;;;;;;;;;;5033594;28;20226;-57
2021/11/09 07:27:14;;;;;;;35.20;16.92;;;;;;;;;;5033844;28;20325;-57
2021/11/09 07:29:46;;;;;;;25.50;15.15;;;;;;;;;;5034645;28;20203;-58
2021/11/09 07:32:15;;;;;;;24.33;16.02;;;;;;;;;;5033669;28;20219;-58
2021/11/09 07:34:42;;;;;;;26.23;17.10;;;;;;;;;;5034641;28;20207;-57
2021/11/09 07:37:10;;;;;;;28.73;16.15;;;;;;;;;;5033801;28;20628;-60
2021/11/09 07:39:37;;;;;;;30.20;18.08;;;;;;;;;;5033522;28;20225;-58
2021/11/09 07:42:05;;;;;;;30.58;16.15;;;;;;;;;;5034024;28;20226;-58
2021/11/09 07:44:32;;;;;;;28.33;16.97;;;;;;;;;;5034620;28;20210;-59
2021/11/09 07:46:59;;;;;;;27.02;17.27;;;;;;;;;;5033854;28;20782;-59
2021/11/09 07:49:28;;;;;;;27.80;17.13;;;;;;;;;;5033876;28;20231;-59
2021/11/09 07:51:56;;;;;;;28.83;17.20;;;;;;;;;;5033881;28;20966;-58
2021/11/09 07:54:26;;;;;;;25.75;17.63;;;;;;;;;;5032618;28;20438;-58
2021/11/09 07:57:00;;;;;;;27.20;15.90;;;;;;;;;;5032658;28;20207;-58
2021/11/09 07:59:31;;;;;;;29.50;17.70;;;;;;;;;;5033422;28;20440;-59
2021/11/09 08:02:03;;;;;;;22.40;15.20;;;;;;;;;;5032644;28;20557;-60
2021/11/09 08:04:39;;;;;;;28.60;18.87;;;;;;;;;;5032734;28;20486;-58
2021/11/09 08:07:11;;;;;;;28.00;18.03;;;;;;;;;;5033849;28;20445;-57
2021/11/09 08:09:38;;;;;;;30.73;18.20;;;;;;;;;;5033134;28;20833;-57
2021/11/09 08:12:06;;;;;;;29.80;17.37;;;;;;;;;;5033233;28;20474;-61
2021/11/09 08:14:34;;;;;;;27.00;16.53;;;;;;;;;;5033009;28;20454;-58
2021/11/09 08:17:01;;;;;;;31.53;18.13;;;;;;;;;;5033088;28;20446;-59
2021/11/09 08:19:28;;;;;;;30.10;18.83;;;;;;;;;;5032683;28;20941;-59
2021/11/09 08:21:58;;;;;;;31.67;17.00;;;;;;;;;;5032730;28;20474;-58
2021/11/09 08:24:25;;;;;;;35.30;19.30;;;;;;;;;;5032852;28;20951;-58
2021/11/09 08:26:55;;;;;;;35.07;17.43;;;;;;;;;;5032535;28;20452;-60
2021/11/09 08:29:25;;;;;;;29.67;17.70;;;;;;;;;;5032840;28;20485;-61
2021/11/09 08:31:53;;;;;;;33.93;19.10;;;;;;;;;;5032725;28;20809;-58
2021/11/09 08:34:20;;;;;;;30.70;17.83;;;;;;;;;;5032368;28;20513;-59
2021/11/09 08:36:48;;;;;;;33.07;19.40;;;;;;;;;;5032234;28;20559;-61
2021/11/09 08:39:21;;;;;;;27.07;16.27;;;;;;;;;;5032977;28;20447;-60
2021/11/09 08:41:52;;;;;;;25.60;16.43;;;;;;;;;;5032810;28;20501;-60
2021/11/09 08:44:21;;;;;;;37.90;18.00;;;;;;;;;;5032592;28;20468;-59
2021/11/09 08:46:50;;;;;;;34.23;18.17;;;;;;;;;;5032297;28;20542;-60
2021/11/09 08:49:18;;;;;;;33.10;18.20;;;;;;;;;;5032268;28;21098;-60
2021/11/09 08:51:46;;;;;;;28.07;17.83;;;;;;;;;;5032494;28;20862;-59
2021/11/09 08:54:15;;;;;;;22.20;15.77;;;;;;;;;;5034156;28;20442;-60
2021/11/09 08:57:04;;;;;;;29.27;16.83;;;;;;;;;;5036277;28;20476;-59
2021/11/09 09:05:10;;;;;;;30.23;16.03;;;;;;;;;;5036123;28;20451;-60
2021/11/09 09:07:38;;;;;;;31.30;16.47;;;;;;;;;;5036303;28;20474;-60
2021/11/09 09:10:06;;;;;;;32.27;17.50;;;;;;;;;;5035608;28;20482;-59
2021/11/09 09:12:36;;;;;;;26.30;15.10;;;;;;;;;;5035967;28;20835;-59
2021/11/09 09:15:04;;;;;;;28.40;16.70;;;;;;;;;;5035635;28;20461;-58
2021/11/09 09:17:34;;;;;;;33.17;17.00;;;;;;;;;;5035450;28;20449;-58
2021/11/09 09:20:07;;;;;;;30.47;16.67;;;;;;;;;;5035961;28;20803;-59
2021/11/09 09:22:39;;;;;;;30.30;16.80;;;;;;;;;;5035265;28;20493;-59
2021/11/09 09:28:29;;;;;;;25.23;15.40;;;;;;;;;;5035334;28;20541;-59
2021/11/09 09:31:13;;;;;;;28.70;14.77;;;;;;;;;;5035704;28;20817;-59
2021/11/09 09:52:05;;;;;;;31.50;13.90;;;;;;;;;;5035440;28;20434;-59
2021/11/09 09:53:25;;;;;;;22.10;12.13;;;;;;;;;;5035806;28;20401;-60
2021/11/09 09:55:54;;;;;;;26.97;12.70;;;;;;;;;;5035174;28;20437;-60
2021/11/09 09:58:21;;;;;;;24.83;11.50;;;;;;;;;;5035112;28;20485;-60
2021/11/09 10:00:50;;;;;;;28.13;12.73;;;;;;;;;;5035847;28;20902;-60
2021/11/09 10:03:18;;;;;;;17.37;10.30;;;;;;;;;;5035427;28;20506;-60
2021/11/09 10:05:45;;;;;;;22.53;11.53;;;;;;;;;;5034944;28;20840;-60
2021/11/09 10:08:15;;;;;;;22.53;11.33;;;;;;;;;;5034629;28;20441;-60
2021/11/09 10:10:43;;;;;;;19.97;10.57;;;;;;;;;;5034989;28;20825;-60
2021/11/09 10:13:12;;;;;;;21.53;11.20;;;;;;;;;;5034716;28;20486;-59
2021/11/09 10:15:42;;;;;;;23.60;12.50;;;;;;;;;;5035163;28;20543;-59
2021/11/09 10:18:14;;;;;;;19.77;10.73;;;;;;;;;;5035327;28;20452;-59
2021/11/09 10:20:43;;;;;;;17.07;10.10;;;;;;;;;;5035680;28;20457;-59
2021/11/09 10:23:13;;;;;;;20.33;10.90;;;;;;;;;;5069204;22;20498;-64
2021/11/09 10:25:40;;;;;;;20.60;10.93;;;;;;;;;;5035265;28;20969;-63
2021/11/09 10:28:08;;;;;;;16.10;10.00;;;;;;;;;;5035059;28;20457;-62
2021/11/09 10:30:37;;;;;;;24.70;11.30;;;;;;;;;;5034558;28;20454;-63
2021/11/09 10:33:05;;;;;;;26.73;11.77;;;;;;;;;;5034508;28;20470;-63
2021/11/09 10:35:34;;;;;;;14.73;8.60;;;;;;;;;;5034476;28;20446;-63
2021/11/09 10:38:03;;;;;;;18.60;9.40;;;;;;;;;;5034629;28;20455;-62
2021/11/09 10:40:31;;;;;;;17.97;9.70;;;;;;;;;;5034324;28;20481;-63
2021/11/09 10:43:00;;;;;;;22.93;9.83;;;;;;;;;;5033940;28;20462;-64
2021/11/09 10:45:29;;;;;;;15.40;9.20;;;;;;;;;;5034335;28;20454;-61
2021/11/09 10:47:57;;;;;;;17.07;10.07;;;;;;;;;;5033777;28;20545;-62
2021/11/09 10:50:27;;;;;;;18.30;9.87;;;;;;;;;;5034493;28;20482;-64
2021/11/09 10:53:03;;;;;;;20.40;9.57;;;;;;;;;;5034448;28;20480;-63
2021/11/09 10:55:37;;;;;;;15.57;8.90;;;;;;;;;;5034313;28;20446;-64
2021/11/09 10:58:29;;;;;;;17.20;9.20;;;;;;;;;;5034397;28;20431;-63
2021/11/09 11:04:00;;;;;;;18.43;7.90;;;;;;;;;;5032808;28;21008;-63
2021/11/09 11:06:29;;;;;;;18.80;8.80;;;;;;;;;;5033859;28;20876;-64
2021/11/09 11:08:57;;;;;;;17.60;8.80;;;;;;;;;;5034125;28;20487;-64
2021/11/09 11:11:26;;;;;;;17.73;9.73;;;;;;;;;;5033499;28;20446;-62
2021/11/09 11:13:54;;;;;;;13.20;7.90;;;;;;;;;;5032941;28;20946;-63
2021/11/09 11:16:25;;;;;;;37.27;24.97;;;;;;;;;;5032852;28;20452;-63
2021/11/09 11:18:54;;;;;;;26.80;16.33;;;;;;;;;;5034201;28;20436;-63
2021/11/09 11:21:22;;;;;;;27.97;18.60;;;;;;;;;;5035583;28;20454;-64
2021/11/09 11:23:50;;;;;;;24.50;17.70;;;;;;;;;;5033774;28;20485;-63
2021/11/09 11:26:20;;;;;;;20.93;8.80;;;;;;;;;;5033296;28;20450;-63
2021/11/09 11:28:49;;;;;;;17.33;7.53;;;;;;;;;;5033423;28;20486;-63
2021/11/09 11:31:17;;;;;;;18.23;8.40;;;;;;;;;;5033721;28;20837;-64
2021/11/09 11:33:44;;;;;;;16.47;8.17;;;;;;;;;;5034222;28;20479;-64
2021/11/09 11:36:12;;;;;;;20.13;7.83;;;;;;;;;;5033262;28;20461;-64
2021/11/09 11:38:40;;;;;;;13.17;7.57;;;;;;;;;;5032743;28;20450;-64
2021/11/09 11:41:07;;;;;;;15.80;7.00;;;;;;;;;;5033275;28;20454;-64
2021/11/09 11:43:56;;;;;;;12.10;7.00;;;;;;;;;;5032855;28;20470;-63
2021/11/09 11:46:41;;;;;;;13.40;7.20;;;;;;;;;;5033139;28;20447;-64
2021/11/09 11:49:09;;;;;;;15.43;7.40;;;;;;;;;;5032712;28;20482;-63
2021/11/09 11:51:38;;;;;;;13.20;6.17;;;;;;;;;;5032636;28;20443;-64
2021/11/09 11:54:07;;;;;;;10.87;5.90;;;;;;;;;;5032844;28;20631;-64
2021/11/09 11:56:49;;;;;;;9.83;4.47;;;;;;;;;;5032356;28;20457;-63
2021/11/09 11:59:37;;;;;;;9.17;5.17;;;;;;;;;;5033503;28;20431;-64
2021/11/09 12:02:07;;;;;;;3.97;3.00;;;;;;;;;;5033010;28;20462;-63
2021/11/09 12:04:51;;;;;;;6.03;3.40;;;;;;;;;;5033232;28;20455;-63
2021/11/09 12:07:19;;;;;;;6.53;3.47;;;;;;;;;;5032410;28;20919;-62
2021/11/09 12:09:48;;;;;;;8.00;4.00;;;;;;;;;;5034105;28;20517;-64
2021/11/09 12:12:30;;;;;;;6.13;3.23;;;;;;;;;;5034315;28;20830;-64
2021/11/09 12:14:58;;;;;;;4.00;3.20;;;;;;;;;;5033106;28;20555;-62
2021/11/09 12:17:32;;;;;;;8.33;3.80;;;;;;;;;;5032993;28;20458;-64
2021/11/09 12:20:04;;;;;;;5.10;3.73;;;;;;;;;;5033232;28;20431;-64
2021/11/09 12:22:44;;;;;;;4.50;3.10;;;;;;;;;;5033114;28;20482;-64
2021/11/09 12:25:14;;;;;;;4.73;3.10;;;;;;;;;;5032995;28;20423;-63
2021/11/09 12:28:09;;;;;;;5.27;2.97;;;;;;;;;;5032664;28;20796;-64
2021/11/09 12:30:52;;;;;;;5.00;2.90;;;;;;;;;;5000800;28;21041;-60
2021/11/09 12:33:22;;;;;;;6.70;3.30;;;;;;;;;;5036229;28;20466;-62
2021/11/09 12:35:50;;;;;;;6.87;3.00;;;;;;;;;;5036708;28;20825;-62
2021/11/09 12:38:19;;;;;;;4.37;2.57;;;;;;;;;;5036655;28;20821;-61
2021/11/09 12:40:50;;;;;;;7.70;4.13;;;;;;;;;;5037230;28;20439;-64
2021/11/09 12:43:19;;;;;;;8.03;3.73;;;;;;;;;;5036835;28;20485;-62
2021/11/09 12:45:49;;;;;;;6.07;3.20;;;;;;;;;;5036079;28;20443;-63
2021/11/09 12:48:18;;;;;;;6.20;2.97;;;;;;;;;;5036629;28;20522;-63
2021/11/09 12:50:52;;;;;;;4.07;3.23;;;;;;;;;;5036105;28;21001;-62
2021/11/09 12:53:21;;;;;;;7.50;3.60;;;;;;;;;;5036087;28;20966;-63
2021/11/09 12:55:56;;;;;;;7.17;3.30;;;;;;;;;;5035848;28;20513;-60
2021/11/09 12:58:25;;;;;;;5.60;3.03;;;;;;;;;;5037232;28;20434;-61
2021/11/09 13:01:14;;;;;;;6.93;2.70;;;;;;;;;;5036197;28;20843;-62
2021/11/09 13:03:46;;;;;;;5.07;3.20;;;;;;;;;;5036086;28;20902;-62
2021/11/09 13:06:35;;;;;;;4.70;2.60;;;;;;;;;;5036958;28;20446;-62
2021/11/09 13:09:08;;;;;;;6.17;2.90;;;;;;;;;;5036147;28;20458;-61
2021/11/09 13:11:39;;;;;;;3.23;2.60;;;;;;;;;;5036028;28;20452;-62
2021/11/09 13:14:07;;;;;;;9.23;3.60;;;;;;;;;;5036333;28;20443;-62
2021/11/09 13:16:34;;;;;;;4.73;3.00;;;;;;;;;;5035893;28;20457;-62
2021/11/09 13:19:06;;;;;;;3.70;2.83;;;;;;;;;;5036092;28;20849;-61
2021/11/09 13:21:33;;;;;;;9.83;3.73;;;;;;;;;;5035634;28;20457;-63
2021/11/09 13:24:01;;;;;;;7.33;3.50;;;;;;;;;;5035489;28;20950;-62
2021/11/09 13:26:29;;;;;;;5.63;2.93;;;;;;;;;;5035872;28;20457;-62
2021/11/09 13:28:57;;;;;;;4.33;2.77;;;;;;;;;;5035311;28;20522;-63
2021/11/09 13:31:30;;;;;;;3.50;2.10;;;;;;;;;;5035795;28;20493;-63
2021/11/09 13:33:59;;;;;;;4.90;3.03;;;;;;;;;;5035953;28;20538;-61
2021/11/09 13:36:26;;;;;;;6.97;2.80;;;;;;;;;;5035890;28;20523;-62
2021/11/09 13:38:55;;;;;;;7.70;3.63;;;;;;;;;;5035007;28;20450;-63
2021/11/09 13:41:28;;;;;;;5.53;2.80;;;;;;;;;;5035044;28;20443;-61
2021/11/09 13:43:59;;;;;;;3.77;3.00;;;;;;;;;;5035117;28;20790;-62
2021/11/09 13:46:27;;;;;;;4.27;3.50;;;;;;;;;;5035419;28;20796;-62
2021/11/09 13:48:55;;;;;;;8.10;2.83;;;;;;;;;;5035544;28;20450;-61
2021/11/09 13:51:24;;;;;;;6.00;3.03;;;;;;;;;;5034886;28;20485;-63
2021/11/09 13:53:52;;;;;;;3.30;2.70;;;;;;;;;;5035069;28;21029;-63
2021/11/09 13:56:21;;;;;;;11.10;2.90;;;;;;;;;;5034914;28;20450;-62
2021/11/09 13:58:57;;;;;;;5.10;2.80;;;;;;;;;;5035188;28;20509;-63
2021/11/09 14:01:35;;;;;;;4.28;2.95;;;;;;;;;;5033823;28;20437;-64
2021/11/09 14:04:09;;;;;;;3.73;2.37;;;;;;;;;;5034945;28;20294;-64
2021/11/09 14:15:37;;;;;;;6.73;2.80;;;;;;;;;;5029780;28;20945;-61
2021/11/09 14:18:11;;;;;;;5.07;2.17;;;;;;;;;;5035010;28;20918;-63
2021/11/09 14:20:38;;;;;;;4.03;2.07;;;;;;;;;;5035111;28;20770;-65
2021/11/09 14:23:11;;;;;;;4.10;1.93;;;;;;;;;;5034228;28;20479;-64
2021/11/09 14:25:38;;;;;;;3.37;2.50;;;;;;;;;;5035097;28;20811;-65
2021/11/09 14:28:07;;;;;;;6.07;2.03;;;;;;;;;;5035056;28;20447;-66
2021/11/09 14:30:36;;;;;;;3.80;2.17;;;;;;;;;;5034771;28;20849;-65
2021/11/09 14:33:05;;;;;;;5.17;3.30;;;;;;;;;;5034520;28;20470;-65
2021/11/09 14:35:34;;;;;;;3.80;2.60;;;;;;;;;;5035312;28;20455;-65
2021/11/09 14:38:04;;;;;;;7.70;2.73;;;;;;;;;;5033911;28;20451;-65
2021/11/09 14:40:34;;;;;;;5.53;2.33;;;;;;;;;;5036654;28;20458;-64
2021/11/09 14:43:13;;;;;;;4.70;2.53;;;;;;;;;;5036294;28;20553;-64
2021/11/09 14:45:48;;;;;;;4.03;2.67;;;;;;;;;;5036704;28;20441;-64
2021/11/09 14:48:19;;;;;;;5.10;3.20;;;;;;;;;;5038327;28;20426;-64
2021/11/09 14:50:50;;;;;;;9.27;3.60;;;;;;;;;;5034555;28;20524;-64
2021/11/09 14:53:19;;;;;;;5.63;2.70;;;;;;;;;;5033257;28;20564;-65
2021/11/09 14:55:49;;;;;;;7.20;3.27;;;;;;;;;;5034621;28;20449;-64
2021/11/09 14:58:30;;;;;;;6.13;3.20;;;;;;;;;;5035358;28;20437;-63
2021/11/09 15:01:04;;;;;;;8.23;3.03;;;;;;;;;;5034607;28;20869;-65
2021/11/09 15:03:35;;;;;;;6.37;3.30;;;;;;;;;;5033938;28;20462;-65
2021/11/09 15:06:09;;;;;;;6.63;4.60;;;;;;;;;;5033801;28;20435;-64
2021/11/09 15:08:45;;;;;;;5.03;2.80;;;;;;;;;;5033931;28;20430;-65
2021/11/09 15:11:24;;;;;;;3.80;2.67;;;;;;;;;;5033991;28;20466;-64
2021/11/09 15:27:59;;;;;;;6.20;3.40;;;;;;;;;;5035027;28;20398;-65
2021/11/09 15:30:34;;;;;;;4.17;2.80;;;;;;;;;;5033663;28;20471;-65
2021/11/09 15:33:03;;;;;;;6.17;3.23;;;;;;;;;;5033281;28;20523;-65
2021/11/09 15:35:40;;;;;;;3.80;3.00;;;;;;;;;;5033132;28;20462;-65
2021/11/09 15:38:07;;;;;;;4.67;3.50;;;;;;;;;;5033179;28;20910;-65
2021/11/09 15:40:35;;;;;;;8.53;4.10;;;;;;;;;;5033341;28;20530;-66
2021/11/09 15:43:03;;;;;;;9.17;3.80;;;;;;;;;;5033066;28;20810;-65
2021/11/09 15:45:31;;;;;;;10.00;3.73;;;;;;;;;;5033472;28;20453;-65
2021/11/09 15:47:58;;;;;;;8.80;4.50;;;;;;;;;;5033053;28;20453;-65
2021/11/09 15:50:27;;;;;;;7.60;3.67;;;;;;;;;;5032801;28;20838;-64
2021/11/09 15:52:54;;;;;;;7.23;3.93;;;;;;;;;;5032833;28;20557;-65
2021/11/09 15:55:21;;;;;;;6.40;3.90;;;;;;;;;;5032794;28;20454;-65
2021/11/09 15:57:49;;;;;;;5.00;3.87;;;;;;;;;;5032956;28;20442;-65
2021/11/09 16:00:17;;;;;;;8.10;4.03;;;;;;;;;;5032690;28;20442;-65
2021/11/09 16:02:46;;;;;;;5.83;4.37;;;;;;;;;;5031931;28;21055;-65
2021/11/09 16:05:13;;;;;;;6.73;3.83;;;;;;;;;;5032608;28;20453;-65
2021/11/09 16:07:44;;;;;;;8.43;4.22;;;;;;;;;;5033071;28;20459;-65
2021/11/09 16:10:15;;;;;;;7.23;4.00;;;;;;;;;;5032986;28;20257;-64
2021/11/09 16:12:42;;;;;;;8.43;4.80;;;;;;;;;;5032643;28;20488;-65
2021/11/09 16:15:10;;;;;;;11.63;5.10;;;;;;;;;;5032499;28;20454;-65
2021/11/09 16:17:39;;;;;;;5.30;4.40;;;;;;;;;;5032996;28;20448;-66
2021/11/09 16:20:08;;;;;;;6.83;5.80;;;;;;;;;;5033106;28;20453;-64
2021/11/09 16:22:35;;;;;;;9.60;5.13;;;;;;;;;;5033508;28;20502;-65
2021/11/09 16:25:05;;;;;;;11.13;5.78;;;;;;;;;;5034182;28;20261;-64
2021/11/09 16:27:32;;;;;;;9.98;5.63;;;;;;;;;;5033180;28;20206;-65
2021/11/09 16:32:29;;;;;;;11.82;6.95;;;;;;;;;;5049463;22;20258;-62
2021/11/09 16:34:57;;;;;;;11.90;5.60;;;;;;;;;;5032137;28;20208;-61
2021/11/09 16:37:25;;;;;;;7.22;5.35;;;;;;;;;;5032729;28;20216;-61
2021/11/09 16:40:00;;;;;;;8.15;5.38;;;;;;;;;;5032796;28;20205;-61
2021/11/09 16:42:32;;;;;;;13.68;7.25;;;;;;;;;;5012662;28;20511;-61
2021/11/09 16:45:01;;;;;;;9.05;5.57;;;;;;;;;;5013342;28;20193;-61
2021/11/09 16:47:29;;;;;;;7.25;5.70;;;;;;;;;;5012983;28;20549;-61
2021/11/09 16:50:18;;;;;;;9.73;5.65;;;;;;;;;;5013061;28;20262;-63
2021/11/09 16:52:48;;;;;;;11.55;5.97;;;;;;;;;;5012925;28;20184;-62